sensor_id;sensor_type;location;lat;lon;timestamp;P1;durP1;ratioP1;P2;durP2;ratioP2
27003;SDS011;14546;47.590;19.022;2023-08-12T00:00:56;6.40;;;3.72;;
27003;SDS011;14546;47.590;19.022;2023-08-12T00:03:24;14.02;;;4.03;;
27003;SDS011;14546;47.590;19.022;2023-08-12T00:05:51;6.00;;;3.88;;
27003;SDS011;14546;47.590;19.022;2023-08-12T00:08:18;7.15;;;4.03;;
27003;SDS011;14546;47.590;19.022;2023-08-12T00:10:45;5.40;;;3.90;;
27003;SDS011;14546;47.590;19.022;2023-08-12T00:13:11;5.50;;;3.85;;
27003;SDS011;14546;47.590;19.022;2023-08-12T00:15:42;5.38;;;3.55;;
27003;SDS011;14546;47.590;19.022;2023-08-12T00:18:10;10.05;;;3.85;;
27003;SDS011;14546;47.590;19.022;2023-08-12T00:20:36;5.97;;;3.40;;
27003;SDS011;14546;47.590;19.022;2023-08-12T00:23:04;8.25;;;3.95;;
27003;SDS011;14546;47.590;19.022;2023-08-12T00:25:32;4.45;;;3.47;;
27003;SDS011;14546;47.590;19.022;2023-08-12T00:27:58;7.05;;;3.92;;
27003;SDS011;14546;47.590;19.022;2023-08-12T00:30:25;6.25;;;3.60;;
27003;SDS011;14546;47.590;19.022;2023-08-12T00:32:51;4.72;;;3.50;;
27003;SDS011;14546;47.590;19.022;2023-08-12T00:35:18;4.32;;;3.65;;
27003;SDS011;14546;47.590;19.022;2023-08-12T00:37:44;4.30;;;3.47;;
27003;SDS011;14546;47.590;19.022;2023-08-12T00:40:11;4.47;;;3.58;;
27003;SDS011;14546;47.590;19.022;2023-08-12T00:42:37;6.10;;;3.67;;
27003;SDS011;14546;47.590;19.022;2023-08-12T00:45:03;5.78;;;3.97;;
27003;SDS011;14546;47.590;19.022;2023-08-12T00:47:32;6.32;;;3.67;;
27003;SDS011;14546;47.590;19.022;2023-08-12T00:49:59;5.53;;;3.70;;
27003;SDS011;14546;47.590;19.022;2023-08-12T00:52:26;4.40;;;3.60;;
27003;SDS011;14546;47.590;19.022;2023-08-12T00:54:53;4.90;;;3.90;;
27003;SDS011;14546;47.590;19.022;2023-08-12T00:57:20;4.55;;;3.00;;
27003;SDS011;14546;47.590;19.022;2023-08-12T00:59:46;5.45;;;3.72;;
27003;SDS011;14546;47.590;19.022;2023-08-12T01:02:13;10.13;;;3.40;;
27003;SDS011;14546;47.590;19.022;2023-08-12T01:04:39;4.68;;;3.55;;
27003;SDS011;14546;47.590;19.022;2023-08-12T01:07:06;6.28;;;3.42;;
27003;SDS011;14546;47.590;19.022;2023-08-12T01:09:32;4.35;;;3.80;;
27003;SDS011;14546;47.590;19.022;2023-08-12T01:12:03;5.88;;;3.70;;
27003;SDS011;14546;47.590;19.022;2023-08-12T01:14:33;6.25;;;3.35;;
27003;SDS011;14546;47.590;19.022;2023-08-12T01:17:03;3.50;;;3.17;;
27003;SDS011;14546;47.590;19.022;2023-08-12T01:22:02;4.50;;;3.38;;
27003;SDS011;14546;47.590;19.022;2023-08-12T01:24:37;6.97;;;3.50;;
27003;SDS011;14546;47.590;19.022;2023-08-12T01:27:24;6.65;;;4.30;;
27003;SDS011;14546;47.590;19.022;2023-08-12T01:29:52;5.40;;;3.53;;
27003;SDS011;14546;47.590;19.022;2023-08-12T01:32:39;4.78;;;3.53;;
27003;SDS011;14546;47.590;19.022;2023-08-12T01:35:17;13.60;;;3.92;;
27003;SDS011;14546;47.590;19.022;2023-08-12T01:37:46;5.55;;;3.78;;
27003;SDS011;14546;47.590;19.022;2023-08-12T01:40:14;4.95;;;3.50;;
27003;SDS011;14546;47.590;19.022;2023-08-12T01:42:41;5.95;;;3.90;;
27003;SDS011;14546;47.590;19.022;2023-08-12T01:45:08;4.45;;;3.80;;
27003;SDS011;14546;47.590;19.022;2023-08-12T01:47:35;6.25;;;3.67;;
27003;SDS011;14546;47.590;19.022;2023-08-12T01:50:02;7.38;;;3.83;;
27003;SDS011;14546;47.590;19.022;2023-08-12T01:52:28;4.78;;;3.70;;
27003;SDS011;14546;47.590;19.022;2023-08-12T01:54:55;5.82;;;3.42;;
27003;SDS011;14546;47.590;19.022;2023-08-12T01:57:21;3.50;;;3.13;;
27003;SDS011;14546;47.590;19.022;2023-08-12T01:59:49;5.82;;;3.85;;
27003;SDS011;14546;47.590;19.022;2023-08-12T02:02:17;6.00;;;4.03;;
27003;SDS011;14546;47.590;19.022;2023-08-12T02:04:44;4.82;;;4.07;;
27003;SDS011;14546;47.590;19.022;2023-08-12T02:07:11;5.82;;;3.58;;
27003;SDS011;14546;47.590;19.022;2023-08-12T02:09:39;6.05;;;4.00;;
27003;SDS011;14546;47.590;19.022;2023-08-12T02:12:05;4.93;;;3.90;;
27003;SDS011;14546;47.590;19.022;2023-08-12T02:14:32;4.65;;;4.00;;
27003;SDS011;14546;47.590;19.022;2023-08-12T02:16:58;6.32;;;4.05;;
27003;SDS011;14546;47.590;19.022;2023-08-12T02:19:25;5.10;;;4.00;;
27003;SDS011;14546;47.590;19.022;2023-08-12T02:21:53;5.35;;;4.15;;
27003;SDS011;14546;47.590;19.022;2023-08-12T02:24:20;4.53;;;3.92;;
27003;SDS011;14546;47.590;19.022;2023-08-12T02:26:46;7.28;;;4.45;;
27003;SDS011;14546;47.590;19.022;2023-08-12T02:29:12;6.03;;;4.68;;
27003;SDS011;14546;47.590;19.022;2023-08-12T02:31:38;7.10;;;4.68;;
27003;SDS011;14546;47.590;19.022;2023-08-12T02:34:05;6.35;;;4.28;;
27003;SDS011;14546;47.590;19.022;2023-08-12T02:36:32;6.93;;;5.00;;
27003;SDS011;14546;47.590;19.022;2023-08-12T02:38:58;5.63;;;4.15;;
27003;SDS011;14546;47.590;19.022;2023-08-12T02:41:24;7.68;;;4.55;;
27003;SDS011;14546;47.590;19.022;2023-08-12T02:43:51;5.00;;;4.50;;
27003;SDS011;14546;47.590;19.022;2023-08-12T02:46:18;6.25;;;4.80;;
27003;SDS011;14546;47.590;19.022;2023-08-12T02:48:45;5.95;;;4.57;;
27003;SDS011;14546;47.590;19.022;2023-08-12T02:51:13;6.20;;;4.45;;
27003;SDS011;14546;47.590;19.022;2023-08-12T02:53:39;6.30;;;4.55;;
27003;SDS011;14546;47.590;19.022;2023-08-12T02:56:07;6.03;;;3.88;;
27003;SDS011;14546;47.590;19.022;2023-08-12T02:58:34;7.05;;;4.00;;
27003;SDS011;14546;47.590;19.022;2023-08-12T03:01:00;7.45;;;4.07;;
27003;SDS011;14546;47.590;19.022;2023-08-12T03:03:26;14.63;;;4.57;;
27003;SDS011;14546;47.590;19.022;2023-08-12T03:05:52;6.82;;;4.25;;
27003;SDS011;14546;47.590;19.022;2023-08-12T03:08:18;19.85;;;5.72;;
27003;SDS011;14546;47.590;19.022;2023-08-12T03:10:44;7.32;;;4.32;;
27003;SDS011;14546;47.590;19.022;2023-08-12T03:13:11;6.30;;;3.80;;
27003;SDS011;14546;47.590;19.022;2023-08-12T03:15:38;6.53;;;4.13;;
27003;SDS011;14546;47.590;19.022;2023-08-12T03:18:06;6.72;;;4.28;;
27003;SDS011;14546;47.590;19.022;2023-08-12T03:20:32;7.72;;;3.70;;
27003;SDS011;14546;47.590;19.022;2023-08-12T03:22:59;23.63;;;6.70;;
27003;SDS011;14546;47.590;19.022;2023-08-12T03:25:25;30.25;;;5.90;;
27003;SDS011;14546;47.590;19.022;2023-08-12T03:27:51;31.25;;;6.63;;
27003;SDS011;14546;47.590;19.022;2023-08-12T03:30:17;40.65;;;7.43;;
27003;SDS011;14546;47.590;19.022;2023-08-12T03:32:44;40.40;;;7.80;;
27003;SDS011;14546;47.590;19.022;2023-08-12T03:35:10;44.90;;;8.88;;
27003;SDS011;14546;47.590;19.022;2023-08-12T03:37:36;53.53;;;9.55;;
27003;SDS011;14546;47.590;19.022;2023-08-12T03:40:02;34.63;;;8.40;;
27003;SDS011;14546;47.590;19.022;2023-08-12T03:42:29;13.32;;;4.40;;
27003;SDS011;14546;47.590;19.022;2023-08-12T03:44:55;4.75;;;3.88;;
27003;SDS011;14546;47.590;19.022;2023-08-12T03:47:21;6.80;;;4.57;;
27003;SDS011;14546;47.590;19.022;2023-08-12T03:49:48;9.43;;;4.40;;
27003;SDS011;14546;47.590;19.022;2023-08-12T03:52:15;7.20;;;4.45;;
27003;SDS011;14546;47.590;19.022;2023-08-12T03:54:42;6.40;;;4.30;;
27003;SDS011;14546;47.590;19.022;2023-08-12T03:57:08;9.60;;;4.03;;
27003;SDS011;14546;47.590;19.022;2023-08-12T03:59:34;6.68;;;3.92;;
27003;SDS011;14546;47.590;19.022;2023-08-12T04:02:01;6.03;;;3.90;;
27003;SDS011;14546;47.590;19.022;2023-08-12T04:04:29;5.10;;;4.32;;
27003;SDS011;14546;47.590;19.022;2023-08-12T04:06:56;5.88;;;4.25;;
27003;SDS011;14546;47.590;19.022;2023-08-12T04:09:23;7.93;;;4.25;;
27003;SDS011;14546;47.590;19.022;2023-08-12T04:11:50;8.85;;;4.70;;
27003;SDS011;14546;47.590;19.022;2023-08-12T04:14:16;12.13;;;4.70;;
27003;SDS011;14546;47.590;19.022;2023-08-12T04:16:43;8.27;;;4.35;;
27003;SDS011;14546;47.590;19.022;2023-08-12T04:19:09;6.43;;;4.55;;
27003;SDS011;14546;47.590;19.022;2023-08-12T04:21:36;7.35;;;4.70;;
27003;SDS011;14546;47.590;19.022;2023-08-12T04:24:03;5.20;;;4.15;;
27003;SDS011;14546;47.590;19.022;2023-08-12T04:26:30;9.68;;;4.82;;
27003;SDS011;14546;47.590;19.022;2023-08-12T04:28:56;6.43;;;4.28;;
27003;SDS011;14546;47.590;19.022;2023-08-12T04:31:22;7.35;;;4.15;;
27003;SDS011;14546;47.590;19.022;2023-08-12T04:33:48;5.18;;;4.68;;
27003;SDS011;14546;47.590;19.022;2023-08-12T04:36:15;10.32;;;4.28;;
27003;SDS011;14546;47.590;19.022;2023-08-12T04:38:41;10.30;;;4.68;;
27003;SDS011;14546;47.590;19.022;2023-08-12T04:41:07;11.25;;;4.90;;
27003;SDS011;14546;47.590;19.022;2023-08-12T04:43:33;6.05;;;4.30;;
27003;SDS011;14546;47.590;19.022;2023-08-12T04:45:59;6.43;;;4.13;;
27003;SDS011;14546;47.590;19.022;2023-08-12T04:48:26;5.40;;;3.85;;
27003;SDS011;14546;47.590;19.022;2023-08-12T04:50:52;9.20;;;4.28;;
27003;SDS011;14546;47.590;19.022;2023-08-12T04:53:18;6.35;;;4.07;;
27003;SDS011;14546;47.590;19.022;2023-08-12T04:55:45;4.18;;;3.78;;
27003;SDS011;14546;47.590;19.022;2023-08-12T04:58:11;6.88;;;4.03;;
27003;SDS011;14546;47.590;19.022;2023-08-12T05:00:38;6.03;;;4.32;;
27003;SDS011;14546;47.590;19.022;2023-08-12T05:03:04;5.47;;;4.05;;
27003;SDS011;14546;47.590;19.022;2023-08-12T05:05:30;6.93;;;4.47;;
27003;SDS011;14546;47.590;19.022;2023-08-12T05:07:56;5.40;;;4.30;;
27003;SDS011;14546;47.590;19.022;2023-08-12T05:10:22;8.18;;;4.50;;
27003;SDS011;14546;47.590;19.022;2023-08-12T05:12:48;6.88;;;4.22;;
27003;SDS011;14546;47.590;19.022;2023-08-12T05:15:15;7.32;;;4.22;;
27003;SDS011;14546;47.590;19.022;2023-08-12T05:17:41;9.70;;;4.55;;
27003;SDS011;14546;47.590;19.022;2023-08-12T05:20:08;6.32;;;4.10;;
27003;SDS011;14546;47.590;19.022;2023-08-12T05:22:34;7.22;;;4.07;;
27003;SDS011;14546;47.590;19.022;2023-08-12T05:25:00;6.43;;;4.65;;
27003;SDS011;14546;47.590;19.022;2023-08-12T05:27:27;4.68;;;4.22;;
27003;SDS011;14546;47.590;19.022;2023-08-12T05:29:53;4.97;;;4.43;;
27003;SDS011;14546;47.590;19.022;2023-08-12T05:32:20;6.82;;;4.50;;
27003;SDS011;14546;47.590;19.022;2023-08-12T05:34:49;4.90;;;3.97;;
27003;SDS011;14546;47.590;19.022;2023-08-12T05:37:16;6.28;;;4.70;;
27003;SDS011;14546;47.590;19.022;2023-08-12T05:39:43;4.72;;;4.03;;
27003;SDS011;14546;47.590;19.022;2023-08-12T05:42:09;5.70;;;3.65;;
27003;SDS011;14546;47.590;19.022;2023-08-12T05:44:35;4.63;;;3.30;;
27003;SDS011;14546;47.590;19.022;2023-08-12T05:47:01;4.45;;;3.70;;
27003;SDS011;14546;47.590;19.022;2023-08-12T05:49:27;5.70;;;3.53;;
27003;SDS011;14546;47.590;19.022;2023-08-12T05:51:53;4.47;;;3.10;;
27003;SDS011;14546;47.590;19.022;2023-08-12T05:54:19;7.93;;;3.40;;
27003;SDS011;14546;47.590;19.022;2023-08-12T05:56:45;4.13;;;2.92;;
27003;SDS011;14546;47.590;19.022;2023-08-12T05:59:11;7.35;;;3.40;;
27003;SDS011;14546;47.590;19.022;2023-08-12T06:01:38;6.38;;;3.08;;
27003;SDS011;14546;47.590;19.022;2023-08-12T06:04:04;6.00;;;3.15;;
27003;SDS011;14546;47.590;19.022;2023-08-12T06:06:30;7.35;;;3.45;;
27003;SDS011;14546;47.590;19.022;2023-08-12T06:08:57;5.05;;;3.25;;
27003;SDS011;14546;47.590;19.022;2023-08-12T06:11:23;6.50;;;3.42;;
27003;SDS011;14546;47.590;19.022;2023-08-12T06:13:50;8.75;;;3.33;;
27003;SDS011;14546;47.590;19.022;2023-08-12T06:16:17;4.68;;;2.92;;
27003;SDS011;14546;47.590;19.022;2023-08-12T06:18:43;4.20;;;3.03;;
27003;SDS011;14546;47.590;19.022;2023-08-12T06:21:09;5.75;;;2.88;;
27003;SDS011;14546;47.590;19.022;2023-08-12T06:23:35;3.63;;;2.85;;
27003;SDS011;14546;47.590;19.022;2023-08-12T06:26:01;5.53;;;2.88;;
27003;SDS011;14546;47.590;19.022;2023-08-12T06:28:27;6.95;;;3.08;;
27003;SDS011;14546;47.590;19.022;2023-08-12T06:30:53;5.85;;;3.60;;
27003;SDS011;14546;47.590;19.022;2023-08-12T06:33:19;10.45;;;3.00;;
27003;SDS011;14546;47.590;19.022;2023-08-12T06:35:45;4.25;;;2.88;;
27003;SDS011;14546;47.590;19.022;2023-08-12T06:38:12;6.60;;;3.47;;
27003;SDS011;14546;47.590;19.022;2023-08-12T06:40:38;4.32;;;3.20;;
27003;SDS011;14546;47.590;19.022;2023-08-12T06:43:04;4.93;;;3.15;;
27003;SDS011;14546;47.590;19.022;2023-08-12T06:45:32;6.93;;;3.17;;
27003;SDS011;14546;47.590;19.022;2023-08-12T06:47:58;6.68;;;2.97;;
27003;SDS011;14546;47.590;19.022;2023-08-12T06:50:24;3.72;;;2.72;;
27003;SDS011;14546;47.590;19.022;2023-08-12T06:52:51;4.10;;;2.88;;
27003;SDS011;14546;47.590;19.022;2023-08-12T06:55:17;4.20;;;3.33;;
27003;SDS011;14546;47.590;19.022;2023-08-12T06:57:43;5.32;;;2.88;;
27003;SDS011;14546;47.590;19.022;2023-08-12T07:00:09;4.10;;;3.05;;
27003;SDS011;14546;47.590;19.022;2023-08-12T07:02:35;4.13;;;2.97;;
27003;SDS011;14546;47.590;19.022;2023-08-12T07:05:01;7.65;;;2.92;;
27003;SDS011;14546;47.590;19.022;2023-08-12T07:07:27;9.35;;;3.53;;
27003;SDS011;14546;47.590;19.022;2023-08-12T07:09:53;4.25;;;3.28;;
27003;SDS011;14546;47.590;19.022;2023-08-12T07:12:21;6.20;;;3.58;;
27003;SDS011;14546;47.590;19.022;2023-08-12T07:14:47;7.45;;;3.38;;
27003;SDS011;14546;47.590;19.022;2023-08-12T07:17:13;4.47;;;2.53;;
27003;SDS011;14546;47.590;19.022;2023-08-12T07:19:39;3.40;;;3.03;;
27003;SDS011;14546;47.590;19.022;2023-08-12T07:22:05;6.53;;;2.60;;
27003;SDS011;14546;47.590;19.022;2023-08-12T07:24:32;4.38;;;2.80;;
27003;SDS011;14546;47.590;19.022;2023-08-12T07:26:58;6.88;;;2.70;;
27003;SDS011;14546;47.590;19.022;2023-08-12T07:29:24;4.13;;;2.75;;
27003;SDS011;14546;47.590;19.022;2023-08-12T07:31:51;4.50;;;2.90;;
27003;SDS011;14546;47.590;19.022;2023-08-12T07:34:17;6.63;;;3.42;;
27003;SDS011;14546;47.590;19.022;2023-08-12T07:36:44;6.07;;;2.95;;
27003;SDS011;14546;47.590;19.022;2023-08-12T07:39:11;3.33;;;2.70;;
27003;SDS011;14546;47.590;19.022;2023-08-12T07:41:37;11.43;;;2.67;;
27003;SDS011;14546;47.590;19.022;2023-08-12T07:44:03;6.68;;;3.10;;
27003;SDS011;14546;47.590;19.022;2023-08-12T07:46:29;5.22;;;2.95;;
27003;SDS011;14546;47.590;19.022;2023-08-12T07:48:56;5.47;;;2.97;;
27003;SDS011;14546;47.590;19.022;2023-08-12T07:51:22;6.30;;;3.33;;
27003;SDS011;14546;47.590;19.022;2023-08-12T07:53:48;7.78;;;3.03;;
27003;SDS011;14546;47.590;19.022;2023-08-12T07:56:16;7.82;;;3.20;;
27003;SDS011;14546;47.590;19.022;2023-08-12T07:58:42;5.80;;;2.83;;
27003;SDS011;14546;47.590;19.022;2023-08-12T08:01:09;3.60;;;2.60;;
27003;SDS011;14546;47.590;19.022;2023-08-12T08:03:36;7.18;;;2.95;;
27003;SDS011;14546;47.590;19.022;2023-08-12T08:06:02;3.53;;;2.45;;
27003;SDS011;14546;47.590;19.022;2023-08-12T08:08:28;7.00;;;2.72;;
27003;SDS011;14546;47.590;19.022;2023-08-12T08:10:54;3.92;;;2.80;;
27003;SDS011;14546;47.590;19.022;2023-08-12T08:13:20;5.35;;;2.75;;
27003;SDS011;14546;47.590;19.022;2023-08-12T08:15:46;3.75;;;2.38;;
27003;SDS011;14546;47.590;19.022;2023-08-12T08:18:12;5.30;;;3.50;;
27003;SDS011;14546;47.590;19.022;2023-08-12T08:20:42;3.75;;;2.60;;
27003;SDS011;14546;47.590;19.022;2023-08-12T08:23:09;3.53;;;2.33;;
27003;SDS011;14546;47.590;19.022;2023-08-12T08:25:35;3.65;;;2.65;;
27003;SDS011;14546;47.590;19.022;2023-08-12T08:28:01;4.05;;;2.58;;
27003;SDS011;14546;47.590;19.022;2023-08-12T08:30:28;3.33;;;2.50;;
27003;SDS011;14546;47.590;19.022;2023-08-12T08:32:54;4.70;;;2.58;;
27003;SDS011;14546;47.590;19.022;2023-08-12T08:35:20;4.75;;;2.85;;
27003;SDS011;14546;47.590;19.022;2023-08-12T08:37:47;4.72;;;2.83;;
27003;SDS011;14546;47.590;19.022;2023-08-12T08:40:13;8.88;;;3.20;;
27003;SDS011;14546;47.590;19.022;2023-08-12T08:42:39;5.15;;;2.60;;
27003;SDS011;14546;47.590;19.022;2023-08-12T08:45:07;5.70;;;2.55;;
27003;SDS011;14546;47.590;19.022;2023-08-12T08:47:36;6.03;;;2.83;;
27003;SDS011;14546;47.590;19.022;2023-08-12T08:50:03;3.63;;;2.80;;
27003;SDS011;14546;47.590;19.022;2023-08-12T08:52:30;2.70;;;2.40;;
27003;SDS011;14546;47.590;19.022;2023-08-12T08:54:57;11.18;;;3.17;;
27003;SDS011;14546;47.590;19.022;2023-08-12T08:57:23;5.28;;;2.42;;
27003;SDS011;14546;47.590;19.022;2023-08-12T08:59:49;7.35;;;2.50;;
27003;SDS011;14546;47.590;19.022;2023-08-12T09:02:16;4.40;;;2.92;;
27003;SDS011;14546;47.590;19.022;2023-08-12T09:04:45;3.40;;;2.78;;
27003;SDS011;14546;47.590;19.022;2023-08-12T09:07:11;4.53;;;2.90;;
27003;SDS011;14546;47.590;19.022;2023-08-12T09:09:46;4.63;;;2.75;;
27003;SDS011;14546;47.590;19.022;2023-08-12T09:12:14;2.80;;;2.33;;
27003;SDS011;14546;47.590;19.022;2023-08-12T09:14:41;6.70;;;2.55;;
27003;SDS011;14546;47.590;19.022;2023-08-12T09:17:07;3.78;;;2.60;;
27003;SDS011;14546;47.590;19.022;2023-08-12T09:19:34;5.28;;;2.78;;
27003;SDS011;14546;47.590;19.022;2023-08-12T09:22:00;5.32;;;2.60;;
27003;SDS011;14546;47.590;19.022;2023-08-12T09:24:28;4.38;;;2.70;;
27003;SDS011;14546;47.590;19.022;2023-08-12T09:26:55;3.97;;;2.47;;
27003;SDS011;14546;47.590;19.022;2023-08-12T09:29:34;4.00;;;2.70;;
27003;SDS011;14546;47.590;19.022;2023-08-12T09:32:13;4.15;;;2.65;;
27003;SDS011;14546;47.590;19.022;2023-08-12T09:34:46;5.03;;;2.53;;
27003;SDS011;14546;47.590;19.022;2023-08-12T09:37:13;3.30;;;2.60;;
27003;SDS011;14546;47.590;19.022;2023-08-12T09:39:39;6.85;;;3.05;;
27003;SDS011;14546;47.590;19.022;2023-08-12T09:42:05;5.93;;;2.67;;
27003;SDS011;14546;47.590;19.022;2023-08-12T09:44:34;4.13;;;2.75;;
27003;SDS011;14546;47.590;19.022;2023-08-12T09:47:00;3.38;;;2.50;;
27003;SDS011;14546;47.590;19.022;2023-08-12T09:49:28;2.83;;;2.40;;
27003;SDS011;14546;47.590;19.022;2023-08-12T09:51:54;3.63;;;2.67;;
27003;SDS011;14546;47.590;19.022;2023-08-12T09:54:21;5.88;;;2.75;;
27003;SDS011;14546;47.590;19.022;2023-08-12T09:56:49;6.63;;;2.60;;
27003;SDS011;14546;47.590;19.022;2023-08-12T09:59:18;21.60;;;3.97;;
27003;SDS011;14546;47.590;19.022;2023-08-12T10:01:45;5.88;;;2.78;;
27003;SDS011;14546;47.590;19.022;2023-08-12T10:04:11;6.03;;;2.30;;
27003;SDS011;14546;47.590;19.022;2023-08-12T10:06:40;4.55;;;2.80;;
27003;SDS011;14546;47.590;19.022;2023-08-12T10:09:06;4.60;;;2.60;;
27003;SDS011;14546;47.590;19.022;2023-08-12T10:11:34;3.92;;;2.58;;
27003;SDS011;14546;47.590;19.022;2023-08-12T10:14:00;5.07;;;2.90;;
27003;SDS011;14546;47.590;19.022;2023-08-12T10:16:27;3.75;;;2.33;;
27003;SDS011;14546;47.590;19.022;2023-08-12T10:18:55;4.63;;;2.60;;
27003;SDS011;14546;47.590;19.022;2023-08-12T10:21:21;2.75;;;2.13;;
27003;SDS011;14546;47.590;19.022;2023-08-12T10:23:48;7.57;;;2.45;;
27003;SDS011;14546;47.590;19.022;2023-08-12T10:26:15;5.47;;;2.35;;
27003;SDS011;14546;47.590;19.022;2023-08-12T10:28:43;4.95;;;2.30;;
27003;SDS011;14546;47.590;19.022;2023-08-12T10:31:10;4.18;;;2.20;;
27003;SDS011;14546;47.590;19.022;2023-08-12T10:33:40;1.98;;;1.80;;
27003;SDS011;14546;47.590;19.022;2023-08-12T10:36:06;3.03;;;2.00;;
27003;SDS011;14546;47.590;19.022;2023-08-12T10:38:32;3.50;;;2.22;;
27003;SDS011;14546;47.590;19.022;2023-08-12T10:43:51;3.05;;;2.38;;
27003;SDS011;14546;47.590;19.022;2023-08-12T10:46:28;4.90;;;2.15;;
27003;SDS011;14546;47.590;19.022;2023-08-12T10:49:05;2.80;;;2.10;;
27003;SDS011;14546;47.590;19.022;2023-08-12T10:51:44;4.57;;;2.03;;
27003;SDS011;14546;47.590;19.022;2023-08-12T10:54:19;4.68;;;2.15;;
27003;SDS011;14546;47.590;19.022;2023-08-12T10:57:04;6.15;;;2.33;;
27003;SDS011;14546;47.590;19.022;2023-08-12T10:59:46;4.07;;;2.20;;
27003;SDS011;14546;47.590;19.022;2023-08-12T11:04:52;5.40;;;2.30;;
27003;SDS011;14546;47.590;19.022;2023-08-12T11:09:44;7.63;;;2.10;;
27003;SDS011;14546;47.590;19.022;2023-08-12T11:12:11;3.97;;;2.63;;
27003;SDS011;14546;47.590;19.022;2023-08-12T11:14:46;3.75;;;1.98;;
27003;SDS011;14546;47.590;19.022;2023-08-12T11:17:13;4.40;;;2.10;;
27003;SDS011;14546;47.590;19.022;2023-08-12T11:19:40;5.40;;;2.40;;
27003;SDS011;14546;47.590;19.022;2023-08-12T11:22:07;2.80;;;1.85;;
27003;SDS011;14546;47.590;19.022;2023-08-12T11:24:33;3.20;;;2.25;;
27003;SDS011;14546;47.590;19.022;2023-08-12T11:27:01;8.23;;;2.13;;
27003;SDS011;14546;47.590;19.022;2023-08-12T11:29:27;3.53;;;1.90;;
27003;SDS011;14546;47.590;19.022;2023-08-12T11:31:53;4.47;;;2.08;;
27003;SDS011;14546;47.590;19.022;2023-08-12T11:34:19;3.70;;;2.10;;
27003;SDS011;14546;47.590;19.022;2023-08-12T11:36:45;2.45;;;1.98;;
27003;SDS011;14546;47.590;19.022;2023-08-12T11:39:11;6.00;;;2.45;;
27003;SDS011;14546;47.590;19.022;2023-08-12T11:41:37;3.33;;;2.30;;
27003;SDS011;14546;47.590;19.022;2023-08-12T11:44:03;7.40;;;2.10;;
27003;SDS011;14546;47.590;19.022;2023-08-12T11:46:32;3.03;;;2.05;;
27003;SDS011;14546;47.590;19.022;2023-08-12T11:48:58;4.47;;;1.90;;
27003;SDS011;14546;47.590;19.022;2023-08-12T11:51:24;4.75;;;2.00;;
27003;SDS011;14546;47.590;19.022;2023-08-12T11:53:50;2.97;;;1.80;;
27003;SDS011;14546;47.590;19.022;2023-08-12T11:56:16;3.60;;;1.70;;
27003;SDS011;14546;47.590;19.022;2023-08-12T11:58:45;5.45;;;2.17;;
27003;SDS011;14546;47.590;19.022;2023-08-12T12:01:15;5.50;;;2.00;;
27003;SDS011;14546;47.590;19.022;2023-08-12T12:03:41;2.85;;;1.80;;
27003;SDS011;14546;47.590;19.022;2023-08-12T12:06:07;2.22;;;1.95;;
27003;SDS011;14546;47.590;19.022;2023-08-12T12:08:33;4.35;;;1.67;;
27003;SDS011;14546;47.590;19.022;2023-08-12T12:11:03;3.72;;;1.95;;
27003;SDS011;14546;47.590;19.022;2023-08-12T12:13:30;3.13;;;1.85;;
27003;SDS011;14546;47.590;19.022;2023-08-12T12:15:56;3.50;;;1.90;;
27003;SDS011;14546;47.590;19.022;2023-08-12T12:18:24;3.83;;;2.00;;
27003;SDS011;14546;47.590;19.022;2023-08-12T12:20:54;2.45;;;1.98;;
27003;SDS011;14546;47.590;19.022;2023-08-12T12:23:21;5.85;;;2.10;;
27003;SDS011;14546;47.590;19.022;2023-08-12T12:25:47;2.72;;;2.00;;
27003;SDS011;14546;47.590;19.022;2023-08-12T12:28:13;3.78;;;2.08;;
27003;SDS011;14546;47.590;19.022;2023-08-12T12:30:39;2.17;;;1.70;;
27003;SDS011;14546;47.590;19.022;2023-08-12T12:33:05;2.45;;;1.73;;
27003;SDS011;14546;47.590;19.022;2023-08-12T12:35:31;7.30;;;2.00;;
27003;SDS011;14546;47.590;19.022;2023-08-12T12:37:57;4.18;;;2.05;;
27003;SDS011;14546;47.590;19.022;2023-08-12T12:40:23;5.00;;;1.80;;
27003;SDS011;14546;47.590;19.022;2023-08-12T12:42:49;4.32;;;1.88;;
27003;SDS011;14546;47.590;19.022;2023-08-12T12:45:15;6.80;;;2.10;;
27003;SDS011;14546;47.590;19.022;2023-08-12T12:47:41;2.65;;;1.90;;
27003;SDS011;14546;47.590;19.022;2023-08-12T12:50:07;1.80;;;1.70;;
27003;SDS011;14546;47.590;19.022;2023-08-12T12:52:33;3.85;;;1.98;;
27003;SDS011;14546;47.590;19.022;2023-08-12T12:54:59;1.92;;;1.60;;
27003;SDS011;14546;47.590;19.022;2023-08-12T12:57:25;2.75;;;1.50;;
27003;SDS011;14546;47.590;19.022;2023-08-12T12:59:52;3.80;;;1.70;;
27003;SDS011;14546;47.590;19.022;2023-08-12T13:02:18;2.80;;;1.50;;
27003;SDS011;14546;47.590;19.022;2023-08-12T13:04:44;5.15;;;1.70;;
27003;SDS011;14546;47.590;19.022;2023-08-12T13:07:10;2.25;;;1.60;;
27003;SDS011;14546;47.590;19.022;2023-08-12T13:09:36;3.63;;;1.63;;
27003;SDS011;14546;47.590;19.022;2023-08-12T13:12:02;1.85;;;1.75;;
27003;SDS011;14546;47.590;19.022;2023-08-12T13:14:28;2.20;;;1.73;;
27003;SDS011;14546;47.590;19.022;2023-08-12T13:16:55;2.22;;;1.42;;
27003;SDS011;14546;47.590;19.022;2023-08-12T13:19:21;6.65;;;1.52;;
27003;SDS011;14546;47.590;19.022;2023-08-12T13:21:47;6.25;;;1.50;;
27003;SDS011;14546;47.590;19.022;2023-08-12T13:24:13;3.63;;;1.65;;
27003;SDS011;14546;47.590;19.022;2023-08-12T13:26:40;2.33;;;1.73;;
27003;SDS011;14546;47.590;19.022;2023-08-12T13:29:06;1.85;;;1.50;;
27003;SDS011;14546;47.590;19.022;2023-08-12T13:31:32;2.40;;;1.75;;
27003;SDS011;14546;47.590;19.022;2023-08-12T13:33:58;2.85;;;1.77;;
27003;SDS011;14546;47.590;19.022;2023-08-12T13:36:24;5.22;;;1.67;;
27003;SDS011;14546;47.590;19.022;2023-08-12T13:38:50;2.22;;;1.55;;
27003;SDS011;14546;47.590;19.022;2023-08-12T13:41:16;4.57;;;1.63;;
27003;SDS011;14546;47.590;19.022;2023-08-12T13:43:42;3.28;;;1.63;;
27003;SDS011;14546;47.590;19.022;2023-08-12T13:46:08;1.98;;;1.60;;
27003;SDS011;14546;47.590;19.022;2023-08-12T13:48:34;3.58;;;1.60;;
27003;SDS011;14546;47.590;19.022;2023-08-12T13:51:00;3.35;;;1.60;;
27003;SDS011;14546;47.590;19.022;2023-08-12T13:53:28;4.15;;;1.40;;
27003;SDS011;14546;47.590;19.022;2023-08-12T13:55:54;3.90;;;1.60;;
27003;SDS011;14546;47.590;19.022;2023-08-12T13:58:20;2.60;;;1.70;;
27003;SDS011;14546;47.590;19.022;2023-08-12T14:00:46;3.90;;;1.77;;
27003;SDS011;14546;47.590;19.022;2023-08-12T14:03:12;1.88;;;1.52;;
27003;SDS011;14546;47.590;19.022;2023-08-12T14:05:38;1.92;;;1.60;;
27003;SDS011;14546;47.590;19.022;2023-08-12T14:08:04;3.17;;;1.65;;
27003;SDS011;14546;47.590;19.022;2023-08-12T14:10:31;4.25;;;1.73;;
27003;SDS011;14546;47.590;19.022;2023-08-12T14:12:57;4.95;;;1.85;;
27003;SDS011;14546;47.590;19.022;2023-08-12T14:15:23;1.98;;;1.48;;
27003;SDS011;14546;47.590;19.022;2023-08-12T14:17:49;3.03;;;1.45;;
27003;SDS011;14546;47.590;19.022;2023-08-12T14:20:15;3.75;;;1.70;;
27003;SDS011;14546;47.590;19.022;2023-08-12T14:22:41;3.20;;;2.30;;
27003;SDS011;14546;47.590;19.022;2023-08-12T14:25:08;4.80;;;2.00;;
27003;SDS011;14546;47.590;19.022;2023-08-12T14:27:36;2.15;;;1.60;;
27003;SDS011;14546;47.590;19.022;2023-08-12T14:30:02;3.58;;;1.83;;
27003;SDS011;14546;47.590;19.022;2023-08-12T14:32:28;2.53;;;1.73;;
27003;SDS011;14546;47.590;19.022;2023-08-12T14:34:54;3.88;;;1.77;;
27003;SDS011;14546;47.590;19.022;2023-08-12T14:37:20;7.30;;;2.30;;
27003;SDS011;14546;47.590;19.022;2023-08-12T14:39:46;1.90;;;1.70;;
27003;SDS011;14546;47.590;19.022;2023-08-12T14:42:12;4.53;;;2.00;;